Terminal Aerodrome Forecast
Issued by NWS

Home | Current Version | Previous Version | Text Only | Print | Product List | Glossary On
Versions: 1 2 3 4 5 6 7 8 9 10 11 12 13 14 15
000
FTUS42 TJSJ 191100
TAFJBQ
TAF
TJBQ 191133Z 1912/2012 12003KT P6SM SCT030 BKN080
     FM191400 08013KT P6SM SCT025
     FM191530 07014G21KT P6SM VCTS SCT025CB
      TEMPO 1917/1921 VRB15G25KT 4SM TSRA OVC025CB
     FM192300 09008KT P6SM SCT025 BKN070=

USA.gov is the U.S. government's official web portal to all federal, state and local government web resources and services.